Time;durP1;ratioP1;P1;durP2;ratioP2;P2;SDS_P1;SDS_P2;PMS_P1;PMS_P2;Temp;Humidity;BMP_temperature;BMP_pressure;BME280_temperature;BME280_humidity;BME280_pressure;Samples;Min_cycle;Max_cycle;Signal;HPM_P1;HPM_P2
2023/07/01 00:18:04;;;;;;;;;;;11.90;66.80;;;;;;6115263;22;4128784;-71
2023/07/01 00:20:32;;;;;;;;;;;12.00;66.60;;;;;;6253652;22;19907;-71
2023/07/01 00:22:58;;;;;;;;;;;12.00;66.30;;;;;;6241853;22;19908;-71
2023/07/01 00:25:25;;;;;;;;;;;12.10;66.00;;;;;;6239979;22;19908;-71
2023/07/01 00:27:52;;;;;;;;;;;12.10;65.90;;;;;;6242085;22;20644;-71
2023/07/01 00:30:19;;;;;;;;;;;12.20;65.60;;;;;;6240508;22;19946;-70
2023/07/01 00:32:45;;;;;;;;;;;12.20;65.50;;;;;;6243563;22;19907;-70
2023/07/01 00:35:12;;;;;;;;;;;12.20;65.40;;;;;;6243884;22;20244;-70
2023/07/01 00:37:39;;;;;;;;;;;12.20;65.40;;;;;;6243799;22;19990;-71
2023/07/01 00:40:06;;;;;;;;;;;12.20;65.40;;;;;;6243827;22;19962;-71
2023/07/01 00:42:32;;;;;;;;;;;12.30;65.20;;;;;;6241890;22;19987;-71
2023/07/01 00:44:59;;;;;;;;;;;12.40;65.10;;;;;;6243726;22;20283;-71
2023/07/01 00:47:26;;;;;;;;;;;12.40;65.00;;;;;;6243547;22;19946;-71
2023/07/01 00:49:53;;;;;;;;;;;12.50;65.10;;;;;;6244034;22;19962;-71
2023/07/01 00:52:19;;;;;;;;;;;12.50;65.00;;;;;;6244254;22;19907;-71
2023/07/01 00:54:46;;;;;;;;;;;12.50;65.10;;;;;;6240492;22;20011;-71
2023/07/01 00:57:13;;;;;;;;;;;12.50;65.30;;;;;;6241071;23;19908;-71
2023/07/01 00:59:40;;;;;;;;;;;12.60;65.40;;;;;;6243079;22;19910;-70
2023/07/01 01:02:08;;;;;;;;;;;12.70;65.60;;;;;;6243283;22;19950;-70
2023/07/01 01:04:38;;;;;;;;;;;12.70;66.10;;;;;;6242009;23;20318;-71
2023/07/01 01:07:10;;;;;;;;;;;12.80;65.70;;;;;;6243898;22;19907;-69
2023/07/01 01:09:38;;;;;;;;;;;12.80;65.60;;;;;;6241822;22;19918;-70
2023/07/01 01:12:06;;;;;;;;;;;12.80;65.30;;;;;;6243909;22;19914;-70
2023/07/01 01:14:33;;;;;;;;;;;12.90;65.30;;;;;;6241436;23;19914;-70
2023/07/01 01:17:04;;;;;;;;;;;12.90;65.60;;;;;;6242256;23;20342;-70
2023/07/01 01:19:33;;;;;;;;;;;13.00;65.80;;;;;;6241924;22;19976;-75
2023/07/01 01:22:18;;;;;;;;;;;13.00;65.50;;;;;;6242790;22;19904;-72
2023/07/01 01:24:47;;;;;;;;;;;13.00;65.30;;;;;;6242894;23;19935;-73
2023/07/01 01:27:15;;;;;;;;;;;13.10;65.40;;;;;;6243312;22;19908;-74
2023/07/01 01:29:42;;;;;;;;;;;13.10;65.20;;;;;;6242860;22;19944;-72
2023/07/01 01:32:10;;;;;;;;;;;13.20;65.00;;;;;;6241775;23;20286;-74
2023/07/01 01:34:36;;;;;;;;;;;13.20;65.20;;;;;;6242475;22;19939;-72
2023/07/01 01:37:04;;;;;;;;;;;13.20;65.40;;;;;;6242878;22;19935;-70
2023/07/01 01:39:31;;;;;;;;;;;13.30;65.30;;;;;;6241621;22;19904;-71
2023/07/01 01:41:59;;;;;;;;;;;13.20;65.00;;;;;;6241253;22;20212;-70
2023/07/01 01:44:32;;;;;;;;;;;13.20;65.00;;;;;;6240044;23;19912;-71
2023/07/01 01:46:58;;;;;;;;;;;13.30;64.80;;;;;;6240651;23;19908;-70
2023/07/01 01:49:25;;;;;;;;;;;13.30;64.90;;;;;;6241022;22;20277;-70
2023/07/01 01:51:52;;;;;;;;;;;13.30;65.00;;;;;;6241126;23;19904;-69
2023/07/01 01:54:18;;;;;;;;;;;13.30;64.90;;;;;;6242838;22;20323;-70
2023/07/01 01:56:45;;;;;;;;;;;13.30;64.80;;;;;;6241127;23;19908;-69
2023/07/01 01:59:12;;;;;;;;;;;13.40;64.70;;;;;;6242988;22;20323;-69
2023/07/01 02:01:39;;;;;;;;;;;13.40;64.10;;;;;;6243127;22;19904;-69
2023/07/01 02:04:05;;;;;;;;;;;13.50;63.90;;;;;;6243008;22;20285;-70
2023/07/01 02:06:34;;;;;;;;;;;13.50;64.10;;;;;;6242564;22;19918;-70
2023/07/01 02:09:00;;;;;;;;;;;13.60;64.00;;;;;;6242182;22;19907;-69
2023/07/01 02:11:27;;;;;;;;;;;13.60;63.80;;;;;;6243024;22;19923;-69
2023/07/01 02:13:54;;;;;;;;;;;13.60;63.70;;;;;;6242958;22;19908;-69
2023/07/01 02:16:20;;;;;;;;;;;13.60;63.70;;;;;;6241646;22;20337;-69
2023/07/01 02:18:47;;;;;;;;;;;13.70;63.60;;;;;;6242211;22;19920;-69
2023/07/01 02:21:14;;;;;;;;;;;13.70;63.80;;;;;;6241678;22;19982;-70
2023/07/01 02:23:40;;;;;;;;;;;13.70;63.90;;;;;;6242227;22;19907;-70
2023/07/01 02:26:08;;;;;;;;;;;13.80;63.80;;;;;;6242036;22;19982;-71
2023/07/01 02:28:34;;;;;;;;;;;13.80;63.60;;;;;;6242548;22;20374;-69
2023/07/01 02:31:01;;;;;;;;;;;13.80;63.40;;;;;;6241876;22;19916;-69
2023/07/01 02:33:28;;;;;;;;;;;13.80;63.40;;;;;;6241968;22;20495;-69
2023/07/01 02:35:54;;;;;;;;;;;13.90;63.30;;;;;;6240612;23;20380;-69
2023/07/01 02:38:21;;;;;;;;;;;13.90;63.30;;;;;;6242035;22;20209;-69
2023/07/01 02:40:48;;;;;;;;;;;13.90;63.30;;;;;;6242430;22;19908;-70
2023/07/01 02:43:15;;;;;;;;;;;14.00;63.10;;;;;;6239937;22;19914;-71
2023/07/01 02:45:42;;;;;;;;;;;14.00;63.20;;;;;;6242274;22;19911;-73
2023/07/01 02:48:08;;;;;;;;;;;14.00;63.30;;;;;;6242478;22;19961;-77
2023/07/01 02:50:35;;;;;;;;;;;14.10;63.20;;;;;;6242082;22;19965;-72
2023/07/01 02:53:02;;;;;;;;;;;14.10;63.10;;;;;;6242401;22;19912;-72
2023/07/01 02:55:29;;;;;;;;;;;14.10;63.10;;;;;;6242067;22;19974;-73
2023/07/01 02:57:56;;;;;;;;;;;14.20;63.00;;;;;;6242226;22;19931;-72
2023/07/01 03:00:23;;;;;;;;;;;14.20;63.10;;;;;;6241835;22;19915;-71
2023/07/01 03:02:50;;;;;;;;;;;14.30;61.40;;;;;;6242043;22;20331;-72
2023/07/01 03:05:20;;;;;;;;;;;14.40;61.70;;;;;;6241933;22;19908;-73
2023/07/01 03:07:47;;;;;;;;;;;14.40;60.90;;;;;;6242234;22;20311;-73
2023/07/01 03:10:14;;;;;;;;;;;14.50;59.80;;;;;;6241770;22;19918;-76
2023/07/01 03:12:41;;;;;;;;;;;14.50;59.70;;;;;;6242449;22;19942;-73
2023/07/01 03:15:08;;;;;;;;;;;14.50;59.40;;;;;;6242488;22;19995;-72
2023/07/01 03:17:35;;;;;;;;;;;14.50;59.80;;;;;;6242248;22;19919;-71
2023/07/01 03:20:04;;;;;;;;;;;14.60;59.80;;;;;;6242789;22;19972;-72
2023/07/01 03:22:31;;;;;;;;;;;14.70;59.20;;;;;;6242619;22;19914;-72
2023/07/01 03:24:57;;;;;;;;;;;14.70;58.80;;;;;;6243274;22;19931;-72
2023/07/01 03:27:24;;;;;;;;;;;14.70;58.70;;;;;;6242990;22;20350;-72
2023/07/01 03:29:52;;;;;;;;;;;14.70;58.70;;;;;;6241967;22;19918;-71
2023/07/01 03:32:19;;;;;;;;;;;14.80;58.40;;;;;;6242532;22;19911;-72
2023/07/01 03:34:47;;;;;;;;;;;14.70;58.80;;;;;;6242580;22;19911;-71
2023/07/01 03:55:13;;;;;;;;;;;14.80;57.60;;;;;;6297764;22;20261;-71
2023/07/01 03:57:40;;;;;;;;;;;14.80;57.90;;;;;;6302715;22;19915;-70
2023/07/01 04:00:17;;;;;;;;;;;14.90;58.30;;;;;;6303796;22;20410;-70
2023/07/01 04:02:47;;;;;;;;;;;15.00;58.00;;;;;;6278248;22;19907;-70
2023/07/01 04:05:13;;;;;;;;;;;14.90;57.80;;;;;;6301901;22;19957;-69
2023/07/01 04:07:44;;;;;;;;;;;14.90;57.80;;;;;;6303468;22;19913;-73
2023/07/01 04:10:11;;;;;;;;;;;14.90;57.60;;;;;;6303232;22;19915;-70
2023/07/01 04:12:38;;;;;;;;;;;15.00;57.40;;;;;;6303361;22;19930;-70
2023/07/01 04:15:11;;;;;;;;;;;15.00;57.60;;;;;;6302797;22;19915;-70
2023/07/01 04:17:42;;;;;;;;;;;15.00;57.30;;;;;;6302688;22;19942;-70
2023/07/01 04:20:09;;;;;;;;;;;15.10;57.00;;;;;;6302475;22;20385;-70
2023/07/01 04:22:39;;;;;;;;;;;15.00;57.20;;;;;;6302763;22;19903;-69
2023/07/01 04:25:06;;;;;;;;;;;15.00;57.40;;;;;;6302149;22;19978;-70
2023/07/01 04:27:33;;;;;;;;;;;15.00;57.50;;;;;;6275635;22;19960;-70
2023/07/01 04:30:00;;;;;;;;;;;15.10;57.20;;;;;;6302151;22;19911;-71
2023/07/01 04:32:28;;;;;;;;;;;15.10;56.80;;;;;;6301298;22;19911;-72
2023/07/01 04:34:55;;;;;;;;;;;15.00;56.80;;;;;;6302611;22;19910;-70
2023/07/01 04:37:22;;;;;;;;;;;15.10;56.40;;;;;;6301619;22;19914;-69
2023/07/01 04:39:48;;;;;;;;;;;15.10;56.50;;;;;;6302975;22;19938;-69
2023/07/01 04:42:15;;;;;;;;;;;15.10;56.70;;;;;;6300367;22;19902;-69
2023/07/01 04:44:42;;;;;;;;;;;15.10;56.80;;;;;;6302948;22;19922;-74
2023/07/01 04:47:08;;;;;;;;;;;15.10;56.90;;;;;;6303365;22;20344;-69
2023/07/01 04:49:35;;;;;;;;;;;15.10;56.90;;;;;;6304096;22;19950;-70
2023/07/01 04:52:02;;;;;;;;;;;15.10;57.00;;;;;;6302538;22;19988;-70
2023/07/01 04:54:29;;;;;;;;;;;15.10;57.20;;;;;;6303636;22;19914;-71
2023/07/01 05:09:24;;;;;;;;;;;15.10;57.10;;;;;;6300370;22;20020;-69
2023/07/01 05:11:50;;;;;;;;;;;15.20;57.30;;;;;;6300312;22;20344;-68
2023/07/01 05:14:17;;;;;;;;;;;15.20;56.90;;;;;;6301765;22;19907;-69
2023/07/01 05:16:44;;;;;;;;;;;15.20;56.90;;;;;;6303199;22;20219;-68
2023/07/01 05:19:11;;;;;;;;;;;15.20;56.70;;;;;;6304261;22;19903;-68
2023/07/01 05:21:38;;;;;;;;;;;15.20;56.60;;;;;;6303749;22;20372;-68
2023/07/01 05:24:06;;;;;;;;;;;15.20;56.80;;;;;;6303932;22;19953;-68
2023/07/01 05:26:34;;;;;;;;;;;15.20;56.90;;;;;;6304212;22;19914;-68
2023/07/01 05:29:01;;;;;;;;;;;15.20;56.90;;;;;;6276762;22;20349;-68
2023/07/01 05:31:28;;;;;;;;;;;15.20;56.80;;;;;;6303862;22;19919;-68
2023/07/01 05:33:54;;;;;;;;;;;15.20;56.80;;;;;;6303812;22;19907;-69
2023/07/01 05:36:21;;;;;;;;;;;15.20;56.80;;;;;;6303794;22;19984;-70
2023/07/01 05:38:48;;;;;;;;;;;15.20;56.70;;;;;;6304498;22;19906;-68
2023/07/01 05:41:14;;;;;;;;;;;15.20;56.80;;;;;;6303610;22;19915;-68
2023/07/01 05:43:41;;;;;;;;;;;15.20;56.80;;;;;;6301806;22;19973;-69
2023/07/01 05:46:08;;;;;;;;;;;15.20;57.00;;;;;;6304226;22;19903;-69
2023/07/01 05:48:35;;;;;;;;;;;15.40;56.60;;;;;;6302972;22;19903;-71
2023/07/01 05:51:01;;;;;;;;;;;15.40;56.80;;;;;;6302398;22;19922;-71
2023/07/01 05:53:28;;;;;;;;;;;15.50;55.40;;;;;;6303443;22;19977;-70
2023/07/01 05:55:55;;;;;;;;;;;15.40;55.10;;;;;;6304083;22;20275;-70
2023/07/01 05:58:21;;;;;;;;;;;15.30;55.10;;;;;;6302693;22;19994;-69
2023/07/01 06:00:49;;;;;;;;;;;15.30;55.50;;;;;;6303325;22;20303;-69
2023/07/01 06:03:16;;;;;;;;;;;15.20;55.50;;;;;;6302562;22;19960;-69
2023/07/01 06:05:42;;;;;;;;;;;15.20;55.60;;;;;;6303847;22;19910;-69
2023/07/01 06:08:09;;;;;;;;;;;15.10;55.70;;;;;;6303036;22;20307;-70
2023/07/01 06:10:37;;;;;;;;;;;15.10;55.80;;;;;;6303489;22;19915;-71
2023/07/01 06:13:03;;;;;;;;;;;15.10;55.70;;;;;;6275450;22;19907;-70
2023/07/01 06:15:30;;;;;;;;;;;15.10;55.70;;;;;;6304063;22;20359;-70
2023/07/01 06:17:57;;;;;;;;;;;15.10;55.60;;;;;;6303215;22;19907;-69
2023/07/01 06:20:23;;;;;;;;;;;15.10;55.50;;;;;;6303538;22;19907;-69
2023/07/01 06:22:50;;;;;;;;;;;15.00;55.30;;;;;;6303376;22;19913;-69
2023/07/01 06:25:17;;;;;;;;;;;15.00;55.10;;;;;;6302667;22;19953;-68
2023/07/01 06:27:44;;;;;;;;;;;15.00;55.20;;;;;;6303516;22;19914;-67
2023/07/01 06:30:10;;;;;;;;;;;15.00;55.10;;;;;;6303440;22;19938;-68
2023/07/01 06:32:37;;;;;;;;;;;14.90;55.10;;;;;;6303418;22;19907;-68
2023/07/01 06:35:04;;;;;;;;;;;14.90;55.30;;;;;;6303150;22;19972;-68
2023/07/01 06:37:31;;;;;;;;;;;14.90;55.50;;;;;;6303554;22;19914;-68
2023/07/01 06:39:57;;;;;;;;;;;14.90;55.70;;;;;;6303112;22;19903;-70
2023/07/01 06:42:24;;;;;;;;;;;14.80;55.60;;;;;;6300333;22;20322;-71
2023/07/01 06:44:51;;;;;;;;;;;14.80;55.80;;;;;;6304096;22;19907;-71
2023/07/01 06:47:18;;;;;;;;;;;14.80;56.00;;;;;;6302736;22;19935;-70
2023/07/01 06:49:44;;;;;;;;;;;14.80;56.30;;;;;;6303580;22;19989;-69
2023/07/01 06:52:11;;;;;;;;;;;14.70;56.60;;;;;;6303858;22;20269;-69
2023/07/01 06:54:38;;;;;;;;;;;14.80;56.80;;;;;;6304138;22;19977;-69
2023/07/01 06:57:04;;;;;;;;;;;14.70;57.20;;;;;;6304011;22;19914;-69
2023/07/01 06:59:31;;;;;;;;;;;14.70;57.40;;;;;;6303644;22;20233;-69
2023/07/01 07:01:58;;;;;;;;;;;14.70;57.70;;;;;;6303625;22;19907;-69
2023/07/01 07:04:25;;;;;;;;;;;14.70;57.90;;;;;;6304170;22;19909;-69
2023/07/01 07:06:51;;;;;;;;;;;14.70;58.00;;;;;;6302349;22;20033;-70
2023/07/01 07:09:18;;;;;;;;;;;14.70;58.20;;;;;;6303229;22;19907;-72
2023/07/01 07:11:45;;;;;;;;;;;14.70;58.30;;;;;;6303508;22;19903;-70
2023/07/01 07:14:11;;;;;;;;;;;14.70;58.40;;;;;;6276378;22;19933;-69
2023/07/01 07:16:38;;;;;;;;;;;14.70;58.50;;;;;;6303505;22;19945;-69
2023/07/01 07:19:05;;;;;;;;;;;14.70;58.70;;;;;;6276763;22;19907;-69
2023/07/01 07:21:33;;;;;;;;;;;14.70;58.70;;;;;;6303677;22;19972;-70
2023/07/01 07:24:00;;;;;;;;;;;14.70;58.80;;;;;;6304822;22;19902;-69
2023/07/01 07:26:27;;;;;;;;;;;14.70;58.90;;;;;;6304247;22;19953;-70
2023/07/01 07:28:54;;;;;;;;;;;14.60;59.00;;;;;;6303763;22;19906;-68
2023/07/01 07:31:21;;;;;;;;;;;14.60;59.00;;;;;;6303963;22;19919;-69
2023/07/01 07:33:48;;;;;;;;;;;14.50;59.10;;;;;;6303684;22;19929;-69
2023/07/01 07:36:14;;;;;;;;;;;14.60;59.20;;;;;;6302638;22;19907;-69
2023/07/01 07:38:41;;;;;;;;;;;14.50;59.40;;;;;;6303220;22;19918;-68
2023/07/01 07:41:08;;;;;;;;;;;14.50;59.30;;;;;;6302509;22;19907;-69
2023/07/01 07:43:35;;;;;;;;;;;14.50;59.10;;;;;;6301664;22;19903;-69
2023/07/01 07:46:01;;;;;;;;;;;14.50;59.10;;;;;;6302977;22;19985;-69
2023/07/01 07:48:28;;;;;;;;;;;14.50;59.00;;;;;;6302711;22;20353;-68
2023/07/01 07:50:55;;;;;;;;;;;14.50;59.10;;;;;;6302438;22;19915;-68
2023/07/01 07:53:21;;;;;;;;;;;14.40;59.10;;;;;;6302830;22;19913;-69
2023/07/01 07:55:48;;;;;;;;;;;14.40;59.00;;;;;;6303275;22;19993;-69
2023/07/01 07:58:15;;;;;;;;;;;14.40;59.00;;;;;;6303220;22;20349;-68
2023/07/01 08:00:42;;;;;;;;;;;14.40;58.90;;;;;;6303249;22;19964;-69
2023/07/01 08:03:09;;;;;;;;;;;14.40;58.90;;;;;;6302508;22;19953;-69
2023/07/01 08:05:35;;;;;;;;;;;14.30;59.00;;;;;;6302420;22;20323;-69
2023/07/01 08:08:02;;;;;;;;;;;14.30;58.90;;;;;;6302924;22;19942;-69
2023/07/01 08:10:29;;;;;;;;;;;14.30;59.10;;;;;;6302547;22;20079;-69
2023/07/01 08:12:56;;;;;;;;;;;14.30;59.10;;;;;;6303327;22;19982;-72
2023/07/01 08:15:22;;;;;;;;;;;14.30;59.10;;;;;;6302793;22;20004;-70
2023/07/01 08:17:49;;;;;;;;;;;14.20;59.10;;;;;;6303351;22;19914;-71
2023/07/01 08:20:16;;;;;;;;;;;14.20;59.20;;;;;;6303283;22;19915;-68
2023/07/01 08:22:42;;;;;;;;;;;14.20;59.40;;;;;;6303110;22;19938;-68
2023/07/01 08:25:09;;;;;;;;;;;14.20;59.40;;;;;;6303031;22;19953;-70
2023/07/01 08:27:36;;;;;;;;;;;14.20;59.40;;;;;;6302982;22;19907;-67
2023/07/01 08:30:03;;;;;;;;;;;14.10;59.50;;;;;;6302163;22;19915;-68
2023/07/01 08:32:30;;;;;;;;;;;14.20;59.40;;;;;;6302565;22;19907;-70
2023/07/01 08:34:57;;;;;;;;;;;14.20;59.40;;;;;;6301407;22;19907;-71
2023/07/01 08:37:23;;;;;;;;;;;14.10;59.40;;;;;;6303093;22;20416;-68
2023/07/01 08:39:50;;;;;;;;;;;14.10;59.50;;;;;;6303226;22;19907;-67
2023/07/01 08:42:26;;;;;;;;;;;14.10;59.40;;;;;;6299693;22;20330;-67
2023/07/01 08:44:53;;;;;;;;;;;14.10;59.50;;;;;;6301452;22;19906;-67
2023/07/01 08:47:20;;;;;;;;;;;14.00;59.40;;;;;;6274285;22;19907;-68
2023/07/01 08:49:47;;;;;;;;;;;14.00;59.40;;;;;;6303198;22;19915;-68
2023/07/01 08:52:14;;;;;;;;;;;14.00;59.50;;;;;;6303857;22;20318;-67
2023/07/01 08:54:41;;;;;;;;;;;14.00;59.40;;;;;;6304275;22;19907;-67
2023/07/01 08:57:10;;;;;;;;;;;14.00;59.50;;;;;;6304053;22;20421;-69
2023/07/01 08:59:37;;;;;;;;;;;14.00;59.40;;;;;;6277321;22;19914;-69
2023/07/01 09:02:04;;;;;;;;;;;13.90;59.30;;;;;;6304223;22;20349;-66
2023/07/01 09:04:31;;;;;;;;;;;13.90;59.20;;;;;;6304831;22;19906;-68
2023/07/01 09:06:58;;;;;;;;;;;13.90;59.00;;;;;;6305112;22;19906;-67
2023/07/01 09:09:24;;;;;;;;;;;13.90;58.80;;;;;;6305128;22;19911;-68
2023/07/01 09:11:51;;;;;;;;;;;13.80;58.70;;;;;;6302639;22;20383;-69
2023/07/01 09:14:18;;;;;;;;;;;13.80;58.80;;;;;;6304228;22;19977;-69
2023/07/01 09:16:44;;;;;;;;;;;13.80;58.50;;;;;;6277904;22;19910;-69
2023/07/01 09:19:16;;;;;;;;;;;13.70;58.60;;;;;;6304597;22;19972;-69
2023/07/01 09:21:43;;;;;;;;;;;13.80;58.70;;;;;;6303917;22;19935;-70
2023/07/01 09:24:12;;;;;;;;;;;13.70;58.70;;;;;;6304736;22;19930;-71
2023/07/01 09:26:38;;;;;;;;;;;13.70;58.80;;;;;;6278283;22;20064;-69
2023/07/01 09:29:09;;;;;;;;;;;13.70;58.90;;;;;;6276537;22;19914;-69
2023/07/01 09:31:49;;;;;;;;;;;13.70;59.00;;;;;;6304181;22;20214;-71
2023/07/01 09:34:18;;;;;;;;;;;13.70;59.20;;;;;;6304176;22;19907;-68
2023/07/01 09:36:45;;;;;;;;;;;13.60;59.20;;;;;;6303833;22;19907;-73
2023/07/01 09:39:12;;;;;;;;;;;13.60;59.20;;;;;;6303900;22;19956;-71
2023/07/01 09:41:39;;;;;;;;;;;13.60;59.20;;;;;;6302036;22;20269;-71
2023/07/01 09:44:16;;;;;;;;;;;13.50;59.30;;;;;;6305324;22;19933;-70
2023/07/01 09:46:43;;;;;;;;;;;13.50;59.40;;;;;;6303966;22;19911;-73
2023/07/01 09:49:10;;;;;;;;;;;13.50;59.50;;;;;;6304013;22;19907;-70
2023/07/01 09:51:47;;;;;;;;;;;13.50;59.70;;;;;;6303293;22;19915;-69
2023/07/01 09:54:29;;;;;;;;;;;13.50;59.90;;;;;;6303672;22;19929;-71
2023/07/01 09:56:56;;;;;;;;;;;13.40;59.90;;;;;;6304131;22;19982;-71
2023/07/01 09:59:23;;;;;;;;;;;13.40;59.80;;;;;;6304022;22;19906;-73
2023/07/01 10:01:50;;;;;;;;;;;13.40;60.10;;;;;;6303400;22;19902;-71
2023/07/01 10:04:25;;;;;;;;;;;13.30;60.20;;;;;;6303460;22;19937;-68
2023/07/01 10:06:53;;;;;;;;;;;13.30;60.30;;;;;;6276032;22;19907;-70
2023/07/01 10:09:19;;;;;;;;;;;13.30;60.40;;;;;;6303628;22;19920;-71
2023/07/01 10:11:46;;;;;;;;;;;13.30;60.50;;;;;;6303481;22;19922;-68
2023/07/01 10:14:13;;;;;;;;;;;13.30;60.50;;;;;;6276774;22;19982;-71
2023/07/01 10:16:49;;;;;;;;;;;13.30;60.50;;;;;;6303638;22;19903;-70
2023/07/01 10:19:28;;;;;;;;;;;13.20;60.30;;;;;;6303335;22;19907;-74
2023/07/01 10:22:14;;;;;;;;;;;13.20;60.40;;;;;;6303493;22;19910;-71
2023/07/01 10:24:42;;;;;;;;;;;13.20;60.30;;;;;;6277006;22;20346;-71
2023/07/01 10:27:09;;;;;;;;;;;13.20;60.40;;;;;;6304090;22;19917;-72
2023/07/01 10:29:36;;;;;;;;;;;13.20;60.40;;;;;;6303412;22;19903;-68
2023/07/01 10:32:09;;;;;;;;;;;13.20;60.40;;;;;;6304558;22;19903;-69
2023/07/01 10:35:00;;;;;;;;;;;13.20;60.50;;;;;;6305826;22;19903;-68
2023/07/01 10:37:27;;;;;;;;;;;13.20;60.80;;;;;;6306355;22;19953;-68
2023/07/01 10:39:56;;;;;;;;;;;13.20;60.80;;;;;;6279517;22;19907;-69
2023/07/01 10:42:33;;;;;;;;;;;13.20;60.80;;;;;;6306321;22;19917;-69
2023/07/01 10:45:12;;;;;;;;;;;13.10;60.80;;;;;;6307079;22;19941;-69
2023/07/01 10:47:45;;;;;;;;;;;13.10;60.70;;;;;;6306998;22;19903;-68
2023/07/01 10:50:13;;;;;;;;;;;13.10;60.80;;;;;;6306568;22;19911;-68
2023/07/01 10:53:03;;;;;;;;;;;13.10;60.90;;;;;;6307129;22;19907;-69
2023/07/01 10:55:33;;;;;;;;;;;13.10;60.90;;;;;;6306739;22;19903;-69
2023/07/01 10:58:21;;;;;;;;;;;13.00;60.90;;;;;;6306925;22;19903;-69
2023/07/01 11:00:52;;;;;;;;;;;13.00;60.90;;;;;;6306271;22;20281;-69
2023/07/01 11:03:36;;;;;;;;;;;13.00;61.00;;;;;;6306690;22;19949;-69
2023/07/01 11:06:04;;;;;;;;;;;13.00;60.90;;;;;;6307575;22;20297;-69
2023/07/01 11:08:31;;;;;;;;;;;13.00;60.90;;;;;;6306930;22;19919;-69
2023/07/01 11:10:57;;;;;;;;;;;13.00;60.80;;;;;;6306130;22;19929;-69
2023/07/01 11:13:25;;;;;;;;;;;13.00;60.60;;;;;;6306471;22;19906;-69
2023/07/01 11:16:07;;;;;;;;;;;13.00;60.60;;;;;;6305844;22;20314;-69
2023/07/01 11:18:40;;;;;;;;;;;13.00;60.30;;;;;;6305495;22;19909;-69
2023/07/01 11:21:13;;;;;;;;;;;13.10;60.40;;;;;;6306202;22;19903;-69
2023/07/01 11:23:43;;;;;;;;;;;13.10;60.30;;;;;;6307164;22;19986;-69
2023/07/01 11:26:10;;;;;;;;;;;13.10;60.50;;;;;;6306701;22;19926;-69
2023/07/01 11:28:37;;;;;;;;;;;13.10;60.40;;;;;;6306273;22;20033;-69
2023/07/01 11:31:11;;;;;;;;;;;13.10;60.50;;;;;;6306435;22;19917;-69
2023/07/01 11:33:43;;;;;;;;;;;13.10;60.50;;;;;;6307126;22;19914;-69
2023/07/01 11:36:09;;;;;;;;;;;13.20;60.50;;;;;;6306115;22;19911;-69
2023/07/01 11:38:37;;;;;;;;;;;13.20;60.50;;;;;;6305490;22;19907;-69
2023/07/01 11:41:03;;;;;;;;;;;13.10;60.20;;;;;;6306148;22;20269;-69
2023/07/01 11:43:30;;;;;;;;;;;13.20;60.20;;;;;;6278940;22;19907;-69
2023/07/01 11:45:57;;;;;;;;;;;13.20;60.10;;;;;;6306507;22;19930;-69
2023/07/01 11:48:32;;;;;;;;;;;13.20;60.10;;;;;;6279553;22;19926;-69
2023/07/01 11:50:59;;;;;;;;;;;13.20;60.00;;;;;;6306283;22;19918;-69
2023/07/01 11:53:26;;;;;;;;;;;13.20;59.90;;;;;;6306664;22;20009;-69
2023/07/01 11:55:56;;;;;;;;;;;13.20;59.90;;;;;;6306709;22;19903;-69
2023/07/01 11:58:26;;;;;;;;;;;13.20;60.00;;;;;;6306787;22;20397;-69
2023/07/01 12:00:52;;;;;;;;;;;13.20;60.00;;;;;;6306719;22;19942;-69
2023/07/01 12:03:19;;;;;;;;;;;13.20;60.00;;;;;;6306250;22;19907;-69
2023/07/01 12:05:46;;;;;;;;;;;13.20;60.10;;;;;;6306512;22;19938;-69
2023/07/01 12:08:13;;;;;;;;;;;13.20;60.20;;;;;;6306525;22;20360;-69
2023/07/01 12:10:40;;;;;;;;;;;13.20;60.20;;;;;;6306408;22;19911;-69
2023/07/01 12:13:07;;;;;;;;;;;13.20;60.20;;;;;;6305665;22;19977;-69
2023/07/01 12:15:54;;;;;;;;;;;13.20;60.10;;;;;;6306816;22;19903;-69
2023/07/01 12:18:28;;;;;;;;;;;13.20;60.00;;;;;;6306610;22;20237;-69
2023/07/01 12:20:55;;;;;;;;;;;13.20;60.10;;;;;;6306451;22;20021;-69
2023/07/01 12:23:22;;;;;;;;;;;13.20;60.20;;;;;;6306878;22;19935;-69
2023/07/01 12:25:49;;;;;;;;;;;13.20;60.20;;;;;;6306096;22;19956;-69
2023/07/01 12:28:18;;;;;;;;;;;13.20;60.20;;;;;;6308235;22;20191;-69
2023/07/01 12:30:44;;;;;;;;;;;13.20;60.10;;;;;;6308227;22;19911;-69
2023/07/01 12:33:11;;;;;;;;;;;13.20;60.10;;;;;;6308882;22;20241;-69
2023/07/01 12:35:41;;;;;;;;;;;13.20;60.20;;;;;;6307894;22;20230;-69
2023/07/01 12:38:14;;;;;;;;;;;13.30;60.00;;;;;;6308237;22;19902;-69
2023/07/01 12:40:40;;;;;;;;;;;13.30;60.00;;;;;;6307623;22;19903;-69
2023/07/01 12:43:07;;;;;;;;;;;13.20;60.20;;;;;;6307227;22;19907;-69
2023/07/01 12:45:34;;;;;;;;;;;13.20;60.20;;;;;;6308009;22;19903;-69
2023/07/01 12:48:02;;;;;;;;;;;13.20;60.20;;;;;;6308110;22;19964;-69
2023/07/01 12:50:28;;;;;;;;;;;13.20;60.20;;;;;;6280989;22;20341;-69
2023/07/01 12:52:57;;;;;;;;;;;13.30;60.40;;;;;;6307875;22;20003;-69
2023/07/01 12:55:24;;;;;;;;;;;13.20;60.70;;;;;;6307789;22;19910;-69
2023/07/01 12:57:51;;;;;;;;;;;13.20;61.70;;;;;;6308532;22;20322;-69
2023/07/01 13:00:17;;;;;;;;;;;13.20;61.80;;;;;;6307718;22;19910;-69
2023/07/01 13:02:45;;;;;;;;;;;13.20;61.70;;;;;;6307808;22;19902;-69
2023/07/01 13:05:14;;;;;;;;;;;13.20;62.00;;;;;;6280580;22;19972;-67
2023/07/01 13:07:41;;;;;;;;;;;13.20;61.80;;;;;;6307770;22;20237;-69
2023/07/01 13:10:08;;;;;;;;;;;13.20;61.70;;;;;;6307707;22;19917;-69
2023/07/01 13:12:36;;;;;;;;;;;13.20;62.00;;;;;;6280960;22;19980;-68
2023/07/01 13:15:02;;;;;;;;;;;13.20;61.90;;;;;;6308230;22;19899;-68
2023/07/01 13:17:37;;;;;;;;;;;13.20;61.80;;;;;;6307483;22;19910;-71
2023/07/01 13:20:07;;;;;;;;;;;13.20;61.80;;;;;;6307345;22;19903;-68
2023/07/01 13:22:34;;;;;;;;;;;13.20;61.80;;;;;;6307822;22;19907;-68
2023/07/01 13:25:01;;;;;;;;;;;13.20;61.80;;;;;;6307962;22;19911;-68
2023/07/01 13:27:28;;;;;;;;;;;13.20;61.70;;;;;;6308064;22;20238;-68
2023/07/01 13:29:55;;;;;;;;;;;13.20;61.80;;;;;;6308223;22;19911;-68
2023/07/01 13:32:22;;;;;;;;;;;13.20;61.90;;;;;;6307462;22;19903;-68
2023/07/01 13:34:49;;;;;;;;;;;13.20;62.20;;;;;;6307295;22;20203;-68
2023/07/01 13:37:18;;;;;;;;;;;13.20;62.20;;;;;;6307113;22;19948;-68
2023/07/01 13:39:46;;;;;;;;;;;13.20;62.10;;;;;;6306791;22;19902;-68
2023/07/01 13:42:23;;;;;;;;;;;13.20;62.00;;;;;;6306010;22;20696;-68
2023/07/01 13:44:51;;;;;;;;;;;13.20;61.80;;;;;;6280182;22;19990;-68
2023/07/01 13:47:18;;;;;;;;;;;13.20;61.80;;;;;;6307591;22;20244;-69
2023/07/01 13:49:44;;;;;;;;;;;13.20;61.80;;;;;;6280456;22;20032;-68
2023/07/01 13:52:11;;;;;;;;;;;13.20;61.90;;;;;;6307879;22;20061;-69
2023/07/01 13:54:38;;;;;;;;;;;13.20;61.70;;;;;;6307604;22;20000;-69
2023/07/01 13:57:05;;;;;;;;;;;13.20;61.80;;;;;;6307889;22;19903;-69
2023/07/01 13:59:31;;;;;;;;;;;13.20;61.60;;;;;;6279474;22;19910;-69
2023/07/01 14:01:59;;;;;;;;;;;13.20;61.70;;;;;;6307909;22;19914;-69
2023/07/01 14:04:26;;;;;;;;;;;13.20;61.90;;;;;;6308317;22;19903;-69
2023/07/01 14:06:53;;;;;;;;;;;13.20;61.90;;;;;;6307910;22;19930;-69
2023/07/01 14:09:24;;;;;;;;;;;13.20;61.90;;;;;;6307309;22;20230;-69
2023/07/01 14:11:51;;;;;;;;;;;13.20;62.00;;;;;;6280749;22;19915;-69
2023/07/01 14:14:21;;;;;;;;;;;13.20;62.30;;;;;;6308004;22;19982;-69
2023/07/01 14:16:49;;;;;;;;;;;13.10;62.30;;;;;;6307869;22;19982;-68
2023/07/01 14:19:16;;;;;;;;;;;13.10;62.80;;;;;;6307356;22;19907;-69
2023/07/01 14:21:43;;;;;;;;;;;13.00;62.90;;;;;;6307618;22;19903;-68
2023/07/01 14:24:23;;;;;;;;;;;13.10;63.20;;;;;;6307834;22;19902;-69
2023/07/01 14:26:56;;;;;;;;;;;13.00;63.40;;;;;;6306606;22;19978;-69
2023/07/01 14:29:23;;;;;;;;;;;13.00;63.60;;;;;;6307495;22;20227;-69
2023/07/01 14:31:50;;;;;;;;;;;13.00;63.60;;;;;;6306946;22;20357;-69
2023/07/01 14:34:37;;;;;;;;;;;13.00;63.70;;;;;;6307159;22;19914;-69
2023/07/01 14:37:04;;;;;;;;;;;13.00;63.90;;;;;;6306046;22;19903;-69
2023/07/01 14:39:40;;;;;;;;;;;13.00;63.70;;;;;;6306744;22;19981;-69
2023/07/01 14:42:08;;;;;;;;;;;13.00;63.70;;;;;;6307419;22;19981;-69
2023/07/01 14:44:34;;;;;;;;;;;12.90;63.80;;;;;;6306660;22;20238;-69
2023/07/01 14:47:01;;;;;;;;;;;12.90;63.70;;;;;;6306392;22;19939;-69
2023/07/01 14:49:28;;;;;;;;;;;13.00;63.60;;;;;;6307046;22;20341;-69
2023/07/01 14:51:55;;;;;;;;;;;12.90;63.50;;;;;;6306514;22;19926;-69
2023/07/01 14:54:21;;;;;;;;;;;12.90;63.40;;;;;;6305933;22;19910;-69
2023/07/01 14:56:51;;;;;;;;;;;12.90;63.50;;;;;;6307163;22;19907;-69
2023/07/01 14:59:17;;;;;;;;;;;12.90;63.60;;;;;;6307024;22;19948;-69
2023/07/01 15:01:44;;;;;;;;;;;12.80;63.50;;;;;;6307236;22;19990;-69
2023/07/01 15:04:12;;;;;;;;;;;12.80;63.60;;;;;;6307598;22;19939;-69
2023/07/01 15:06:39;;;;;;;;;;;12.80;63.50;;;;;;6305218;22;19903;-68
2023/07/01 15:09:05;;;;;;;;;;;12.80;63.70;;;;;;6306845;22;19919;-69